createdAt,value
2017-12-08T00:02:21.130Z,1.60
2017-12-08T00:04:48.613Z,1.70
2017-12-08T00:07:16.071Z,1.70
2017-12-08T00:09:43.535Z,1.80
2017-12-08T00:12:11.021Z,1.90
2017-12-08T00:14:38.968Z,1.90
2017-12-08T00:17:07.435Z,2.00
2017-12-08T00:19:35.184Z,2.10
2017-12-08T00:22:03.310Z,2.10
2017-12-08T00:24:32.068Z,2.20
2017-12-08T00:26:59.949Z,2.20
2017-12-08T00:29:27.782Z,2.30
2017-12-08T00:31:55.280Z,2.30
2017-12-08T00:34:22.736Z,2.30
2017-12-08T00:36:50.196Z,2.30
2017-12-08T00:39:17.656Z,2.40
2017-12-08T00:41:45.123Z,2.40
2017-12-08T00:44:13.344Z,2.50
2017-12-08T00:46:40.845Z,2.40
2017-12-08T00:49:08.308Z,2.50
2017-12-08T00:51:36.580Z,2.60
2017-12-08T00:54:04.035Z,2.50
2017-12-08T00:56:31.584Z,2.70
2017-12-08T00:58:59.068Z,2.70
2017-12-08T01:01:27.299Z,2.90
2017-12-08T01:03:54.763Z,2.90
2017-12-08T01:06:22.235Z,3.00
2017-12-08T01:08:49.700Z,3.00
2017-12-08T01:11:17.157Z,3.00
2017-12-08T01:13:44.607Z,3.10
2017-12-08T01:16:12.084Z,3.10
2017-12-08T01:18:40.311Z,3.10
2017-12-08T01:21:07.781Z,3.10
2017-12-08T01:23:35.244Z,3.20
2017-12-08T01:26:02.708Z,3.20
2017-12-08T01:28:30.176Z,3.30
2017-12-08T01:30:57.631Z,3.30
2017-12-08T01:33:25.099Z,3.40
2017-12-08T01:35:52.560Z,3.40
2017-12-08T01:38:20.020Z,3.50
2017-12-08T01:40:48.240Z,3.50
2017-12-08T01:43:15.708Z,3.50
2017-12-08T01:45:43.175Z,3.50
2017-12-08T01:48:10.674Z,3.50
2017-12-08T01:50:38.889Z,3.50
2017-12-08T01:53:06.368Z,3.50
2017-12-08T01:55:33.815Z,3.60
2017-12-08T01:58:01.275Z,3.60
2017-12-08T02:00:38.680Z,3.60
2017-12-08T02:03:06.159Z,3.70
2017-12-08T02:05:33.624Z,3.70
2017-12-08T02:08:01.104Z,3.70
2017-12-08T02:10:29.328Z,3.70
2017-12-08T02:12:56.790Z,3.70
2017-12-08T02:15:24.249Z,3.70
2017-12-08T02:17:51.723Z,3.80
2017-12-08T02:20:19.183Z,3.80
2017-12-08T02:22:46.654Z,3.90
2017-12-08T02:25:14.106Z,4.00
2017-12-08T02:27:41.558Z,4.10
2017-12-08T02:30:09.034Z,4.10
2017-12-08T02:32:36.498Z,4.20
2017-12-08T02:35:03.965Z,4.20
2017-12-08T02:37:31.416Z,4.30
2017-12-08T02:39:58.894Z,4.50
2017-12-08T02:42:26.347Z,4.50
2017-12-08T02:44:53.806Z,4.60
2017-12-08T02:47:22.048Z,4.70
2017-12-08T02:49:49.556Z,4.70
2017-12-08T02:52:17.775Z,4.80
2017-12-08T02:54:45.235Z,4.80
2017-12-08T02:57:12.689Z,4.90
2017-12-08T02:59:40.148Z,4.90
2017-12-08T03:02:07.613Z,4.90
2017-12-08T03:04:35.068Z,4.90
2017-12-08T03:07:02.529Z,5.00
2017-12-08T03:09:29.986Z,5.00
2017-12-08T03:11:57.445Z,5.00
2017-12-08T03:14:24.917Z,5.00
2017-12-08T03:16:52.379Z,5.00
2017-12-08T03:19:19.851Z,4.90
2017-12-08T03:21:47.289Z,4.90
2017-12-08T03:24:14.746Z,4.90
2017-12-08T03:26:42.224Z,4.90
2017-12-08T03:29:09.687Z,4.90
2017-12-08T03:31:37.157Z,4.90
2017-12-08T03:34:04.615Z,4.90
2017-12-08T03:36:32.844Z,4.90
2017-12-08T03:39:00.300Z,4.90
2017-12-08T03:41:27.761Z,4.90
2017-12-08T03:43:55.249Z,4.90
2017-12-08T03:46:22.713Z,4.90
2017-12-08T03:48:50.192Z,4.90
2017-12-08T03:51:18.440Z,5.00
2017-12-08T03:53:45.899Z,5.00
2017-12-08T03:56:13.368Z,5.00
2017-12-08T03:58:40.839Z,5.00
2017-12-08T04:01:09.092Z,5.10
2017-12-08T04:03:36.571Z,5.10
2017-12-08T04:06:04.854Z,5.10
2017-12-08T04:08:33.090Z,5.10
2017-12-08T04:11:00.543Z,5.10
2017-12-08T04:13:28.004Z,5.10
2017-12-08T04:15:55.469Z,5.10
2017-12-08T04:18:22.919Z,5.10
2017-12-08T04:20:50.391Z,5.10
2017-12-08T04:23:17.870Z,5.10
2017-12-08T04:25:46.087Z,5.00
2017-12-08T04:28:13.553Z,5.00
2017-12-08T04:30:41.007Z,5.00
2017-12-08T04:33:08.471Z,5.00
2017-12-08T04:35:35.927Z,5.00
2017-12-08T04:38:03.387Z,5.00
2017-12-08T04:40:30.872Z,4.90
2017-12-08T04:42:58.335Z,4.90
2017-12-08T04:45:25.796Z,4.90
2017-12-08T04:47:53.288Z,4.90
2017-12-08T04:50:21.511Z,4.80
2017-12-08T04:52:48.996Z,4.80
2017-12-08T04:55:16.504Z,4.80
2017-12-08T04:57:43.959Z,4.80
2017-12-08T05:00:11.415Z,4.80
2017-12-08T05:02:38.879Z,4.70
2017-12-08T05:05:06.368Z,4.70
2017-12-08T05:07:33.833Z,4.60
2017-12-08T05:10:02.052Z,4.40
2017-12-08T05:12:29.516Z,4.40
2017-12-08T05:14:56.970Z,4.30
2017-12-08T05:17:24.428Z,4.30
2017-12-08T05:19:51.878Z,4.20
2017-12-08T05:22:19.354Z,4.20
2017-12-08T05:24:46.804Z,4.10
2017-12-08T05:27:14.264Z,4.10
2017-12-08T05:29:41.724Z,4.10
2017-12-08T05:32:09.187Z,4.10
2017-12-08T05:34:36.653Z,4.00
2017-12-08T05:37:04.111Z,4.00
2017-12-08T05:39:31.567Z,3.90
2017-12-08T05:41:59.027Z,3.90
2017-12-08T05:44:26.487Z,3.80
2017-12-08T05:46:53.948Z,3.80
2017-12-08T05:49:21.410Z,3.90
2017-12-08T05:51:48.859Z,3.90
2017-12-08T05:54:16.323Z,4.00
2017-12-08T05:56:43.804Z,4.10
2017-12-08T05:59:11.268Z,4.10
2017-12-08T06:01:38.728Z,4.20
2017-12-08T06:04:06.984Z,4.30
2017-12-08T06:06:34.440Z,4.20
2017-12-08T06:09:01.903Z,4.30
2017-12-08T06:11:29.356Z,4.30
2017-12-08T06:13:56.816Z,4.40
2017-12-08T06:16:24.288Z,4.40
2017-12-08T06:18:52.520Z,4.40
2017-12-08T06:21:19.984Z,4.40
2017-12-08T06:23:47.451Z,4.30
2017-12-08T06:26:14.908Z,4.30
2017-12-08T06:28:42.355Z,4.30
2017-12-08T06:31:09.830Z,4.20
2017-12-08T06:33:37.299Z,4.20
2017-12-08T06:36:04.767Z,4.20
2017-12-08T06:38:32.988Z,4.10
2017-12-08T06:41:00.458Z,4.20
2017-12-08T06:43:27.915Z,4.20
2017-12-08T06:45:55.375Z,4.20
2017-12-08T06:48:22.832Z,4.20
2017-12-08T06:50:50.292Z,4.20
2017-12-08T06:53:17.743Z,4.30
2017-12-08T06:55:45.207Z,4.40
2017-12-08T06:58:12.659Z,4.40
2017-12-08T07:00:40.141Z,4.50
2017-12-08T07:03:07.595Z,4.50
2017-12-08T07:05:35.059Z,4.50
2017-12-08T07:08:02.515Z,4.50
2017-12-08T07:10:29.975Z,4.40
2017-12-08T07:12:57.431Z,4.40
2017-12-08T07:15:24.913Z,4.50
2017-12-08T07:17:53.132Z,4.60
2017-12-08T07:20:20.607Z,4.60
2017-12-08T07:22:48.059Z,4.60
2017-12-08T07:25:15.530Z,4.70
2017-12-08T07:27:42.988Z,4.70
2017-12-08T07:30:10.447Z,4.80
2017-12-08T07:32:37.915Z,4.80
2017-12-08T07:35:05.372Z,4.90
2017-12-08T07:37:32.833Z,5.00
2017-12-08T07:40:00.292Z,5.10
2017-12-08T07:42:28.523Z,5.20
2017-12-08T07:44:55.980Z,5.20
2017-12-08T07:47:23.443Z,5.20
2017-12-08T07:49:50.924Z,5.20
2017-12-08T07:52:18.483Z,5.20
2017-12-08T07:54:45.939Z,5.20
2017-12-08T07:57:13.404Z,5.20
2017-12-08T07:59:40.859Z,5.20
2017-12-08T08:02:08.321Z,5.20
2017-12-08T08:04:35.784Z,5.10
2017-12-08T08:07:03.245Z,5.10
2017-12-08T08:09:31.492Z,5.10
2017-12-08T08:11:58.959Z,5.10
2017-12-08T08:14:26.456Z,5.10
2017-12-08T08:16:54.684Z,5.00
2017-12-08T08:19:22.151Z,5.00
2017-12-08T08:21:49.619Z,5.00
2017-12-08T08:24:17.071Z,4.90
2017-12-08T08:26:44.556Z,4.90
2017-12-08T08:29:12.839Z,4.90
2017-12-08T08:31:41.056Z,5.00
2017-12-08T08:34:08.515Z,4.90
2017-12-08T08:36:35.990Z,5.00
2017-12-08T08:39:03.855Z,5.00
2017-12-08T08:41:31.299Z,5.10
2017-12-08T08:43:58.760Z,5.10
2017-12-08T08:46:26.226Z,5.20
2017-12-08T08:48:53.691Z,5.30
2017-12-08T08:51:21.149Z,5.30
2017-12-08T08:53:48.611Z,5.30
2017-12-08T08:56:16.070Z,5.30
2017-12-08T08:58:43.524Z,5.30
2017-12-08T09:01:11.075Z,5.30
2017-12-08T09:03:38.636Z,5.30
2017-12-08T09:06:06.087Z,5.30
2017-12-08T09:08:33.547Z,5.30
2017-12-08T09:11:01.007Z,5.30
2017-12-08T09:13:28.472Z,5.30
2017-12-08T09:15:55.924Z,5.20
2017-12-08T09:18:23.382Z,5.20
2017-12-08T09:20:50.835Z,5.20
2017-12-08T09:23:18.300Z,5.20
2017-12-08T09:25:45.766Z,5.20
2017-12-08T09:28:13.251Z,5.20
2017-12-08T09:30:40.737Z,5.20
2017-12-08T09:33:08.179Z,5.20
2017-12-08T09:35:35.656Z,4.90
2017-12-08T09:38:03.112Z,4.40
2017-12-08T09:40:30.611Z,3.90
2017-12-08T09:42:58.843Z,3.40
2017-12-08T09:45:26.306Z,3.40
2017-12-08T09:47:53.764Z,3.20
2017-12-08T09:50:21.245Z,3.00
2017-12-08T09:52:48.695Z,2.90
2017-12-08T09:55:16.166Z,2.70
2017-12-08T09:57:43.624Z,2.70
2017-12-08T10:00:11.083Z,2.60
2017-12-08T10:02:38.538Z,2.60
2017-12-08T10:05:06.001Z,2.60
2017-12-08T10:07:33.468Z,2.60
2017-12-08T10:10:01.722Z,2.60
2017-12-08T10:12:29.175Z,2.60
2017-12-08T10:14:56.644Z,2.60
2017-12-08T10:17:24.096Z,2.60
2017-12-08T10:19:51.567Z,2.70
2017-12-08T10:22:19.024Z,2.70
2017-12-08T10:24:46.596Z,2.60
2017-12-08T10:27:14.836Z,2.70
2017-12-08T10:29:42.310Z,2.70
2017-12-08T10:32:09.777Z,2.70
2017-12-08T10:34:37.246Z,2.70
2017-12-08T10:37:05.484Z,2.90
2017-12-08T10:39:32.939Z,2.90
2017-12-08T10:42:00.405Z,2.90
2017-12-08T10:44:27.863Z,2.90
2017-12-08T10:46:55.440Z,3.00
2017-12-08T10:49:22.900Z,3.00
2017-12-08T10:51:50.420Z,3.00
2017-12-08T10:54:17.875Z,3.00
2017-12-08T10:56:45.374Z,3.10
2017-12-08T10:59:12.840Z,3.00
2017-12-08T11:01:40.338Z,3.10
2017-12-08T11:04:07.783Z,3.00
2017-12-08T11:06:36.012Z,2.90
2017-12-08T11:09:03.479Z,2.90
2017-12-08T11:11:30.947Z,2.90
2017-12-08T11:13:58.414Z,3.00
2017-12-08T11:16:25.879Z,3.00
2017-12-08T11:18:54.108Z,2.90
2017-12-08T11:21:21.648Z,2.90
2017-12-08T11:23:49.842Z,2.90
2017-12-08T11:26:17.314Z,2.80
2017-12-08T11:28:44.763Z,2.70
2017-12-08T11:31:12.244Z,2.60
2017-12-08T11:33:39.706Z,2.50
2017-12-08T11:36:07.162Z,2.50
2017-12-08T11:38:34.629Z,2.50
2017-12-08T11:41:02.189Z,2.40
2017-12-08T11:43:29.652Z,2.40
2017-12-08T11:45:57.115Z,2.30
2017-12-08T11:48:25.374Z,1.90
2017-12-08T11:50:52.815Z,1.90
2017-12-08T11:53:20.290Z,1.80
2017-12-08T11:55:47.803Z,1.80
2017-12-08T11:58:15.275Z,1.80
2017-12-08T12:00:42.739Z,1.70
2017-12-08T12:03:10.210Z,1.60
2017-12-08T12:05:37.672Z,1.40
2017-12-08T12:08:05.144Z,1.30
2017-12-08T12:10:32.598Z,1.30
2017-12-08T12:13:00.071Z,1.40
2017-12-08T12:15:27.532Z,1.50
2017-12-08T12:17:55.777Z,1.80
2017-12-08T12:20:23.241Z,1.70
2017-12-08T12:22:50.699Z,1.80
2017-12-08T12:25:18.159Z,1.80
2017-12-08T12:27:45.627Z,1.90
2017-12-08T12:30:13.091Z,2.00
2017-12-08T12:32:40.688Z,2.10
2017-12-08T12:35:08.140Z,2.10
2017-12-08T12:37:35.599Z,2.10
2017-12-08T12:40:03.068Z,2.10
2017-12-08T12:42:30.547Z,2.10
2017-12-08T12:44:58.009Z,2.20
2017-12-08T12:47:25.462Z,2.20
2017-12-08T12:49:52.937Z,2.30
2017-12-08T12:52:20.408Z,2.30
2017-12-08T12:54:47.875Z,2.50
2017-12-08T12:57:15.335Z,2.60
2017-12-08T12:59:42.808Z,2.60
2017-12-08T13:02:11.027Z,2.60
2017-12-08T13:04:38.495Z,2.60
2017-12-08T13:07:05.967Z,2.70
2017-12-08T13:09:33.437Z,2.70
2017-12-08T13:12:00.900Z,2.80
2017-12-08T13:14:28.485Z,2.80
2017-12-08T13:16:56.711Z,2.70
2017-12-08T13:19:24.204Z,2.70
2017-12-08T13:21:51.663Z,2.70
2017-12-08T13:24:19.132Z,2.70
2017-12-08T13:26:47.380Z,2.70
2017-12-08T13:29:14.847Z,2.70
2017-12-08T13:31:42.315Z,2.80
2017-12-08T13:34:10.539Z,2.80
2017-12-08T13:36:38.040Z,2.80
2017-12-08T13:39:05.504Z,2.80
2017-12-08T13:41:33.739Z,2.80
2017-12-08T13:44:01.244Z,2.80
2017-12-08T13:46:29.490Z,2.80
2017-12-08T13:48:56.947Z,2.80
2017-12-08T13:51:24.415Z,2.80
2017-12-08T13:54:05.425Z,2.80
2017-12-08T13:56:45.605Z,2.80
2017-12-08T13:59:13.112Z,2.80
2017-12-08T14:01:40.572Z,2.80
2017-12-08T14:04:08.041Z,2.80
2017-12-08T14:06:36.266Z,2.80
2017-12-08T14:09:04.114Z,2.70
2017-12-08T14:11:31.583Z,2.70
2017-12-08T14:13:59.059Z,2.70
2017-12-08T14:16:26.541Z,2.70
2017-12-08T14:18:54.012Z,2.60
2017-12-08T14:21:22.253Z,2.60
2017-12-08T14:23:49.704Z,2.60
2017-12-08T14:26:17.170Z,2.50
2017-12-08T14:28:44.626Z,2.50
2017-12-08T14:31:12.100Z,2.40
2017-12-08T14:33:39.555Z,2.30
2017-12-08T14:36:07.019Z,2.30
2017-12-08T14:38:34.479Z,2.20
2017-12-08T14:41:01.939Z,2.20
2017-12-08T14:43:30.163Z,2.20
2017-12-08T14:45:57.619Z,2.20
2017-12-08T14:48:25.089Z,2.20
2017-12-08T14:50:52.543Z,2.20
2017-12-08T14:53:20.019Z,2.20
2017-12-08T14:55:47.471Z,2.20
2017-12-08T14:58:14.940Z,2.20
2017-12-08T15:00:42.401Z,2.20
2017-12-08T15:03:09.863Z,2.10
2017-12-08T15:05:37.324Z,2.10
2017-12-08T15:08:04.788Z,2.10
2017-12-08T15:10:33.012Z,2.10
2017-12-08T15:13:00.472Z,2.00
2017-12-08T15:15:27.933Z,2.10
2017-12-08T15:17:55.420Z,2.10
2017-12-08T15:20:22.879Z,2.00
2017-12-08T15:22:50.343Z,2.00
2017-12-08T15:25:17.798Z,1.90
2017-12-08T15:27:45.291Z,2.00
2017-12-08T15:30:12.779Z,2.00
2017-12-08T15:32:40.255Z,2.10
2017-12-08T15:35:07.746Z,2.10
2017-12-08T15:37:35.980Z,2.20
2017-12-08T15:40:03.450Z,2.20
2017-12-08T15:42:31.010Z,2.20
2017-12-08T15:44:58.428Z,2.20
2017-12-08T15:47:25.938Z,2.20
2017-12-08T15:49:53.409Z,2.10
2017-12-08T15:52:21.626Z,2.10
2017-12-08T15:54:49.538Z,2.10
2017-12-08T15:57:17.000Z,2.10
2017-12-08T15:59:44.476Z,1.80
2017-12-08T16:02:12.699Z,1.20
2017-12-08T16:04:40.169Z,1.10
2017-12-08T16:07:07.623Z,1.00
2017-12-08T16:09:35.101Z,1.00
2017-12-08T16:12:02.556Z,1.10
2017-12-08T16:14:30.012Z,1.10
2017-12-08T16:16:57.475Z,1.10
2017-12-08T16:19:24.935Z,1.10
2017-12-08T16:21:52.467Z,1.00
2017-12-08T16:24:19.934Z,1.00
2017-12-08T16:26:47.395Z,0.90
2017-12-08T16:29:14.872Z,0.90
2017-12-08T16:31:43.092Z,0.90
2017-12-08T16:34:10.564Z,0.90
2017-12-08T16:36:38.061Z,0.90
2017-12-08T16:39:06.259Z,0.90
2017-12-08T16:41:33.710Z,0.90
2017-12-08T16:44:01.948Z,0.80
2017-12-08T16:46:29.408Z,0.80
2017-12-08T16:48:56.883Z,0.80
2017-12-08T16:51:24.338Z,0.80
2017-12-08T16:53:52.558Z,0.70
2017-12-08T16:56:20.060Z,0.70
2017-12-08T16:58:47.507Z,0.70
2017-12-08T17:01:14.981Z,0.60
2017-12-08T17:03:42.431Z,0.50
2017-12-08T17:06:09.899Z,0.40
2017-12-08T17:08:37.443Z,0.40
2017-12-08T17:11:04.908Z,0.30
2017-12-08T17:13:32.360Z,0.30
2017-12-08T17:15:59.827Z,0.30
2017-12-08T17:18:27.291Z,0.30
2017-12-08T17:20:55.540Z,0.40
2017-12-08T17:23:22.995Z,0.40
2017-12-08T17:25:50.573Z,0.50
2017-12-08T17:28:18.026Z,0.50
2017-12-08T17:30:45.587Z,0.50
2017-12-08T17:33:13.039Z,0.60
2017-12-08T17:35:40.503Z,0.60
2017-12-08T17:38:07.958Z,0.60
2017-12-08T17:40:35.511Z,0.60
2017-12-08T17:43:02.972Z,0.50
2017-12-08T17:45:30.435Z,0.40
2017-12-08T17:47:57.886Z,0.40
2017-12-08T17:50:25.371Z,0.30
2017-12-08T17:52:53.596Z,0.30
2017-12-08T17:55:21.050Z,0.30
2017-12-08T17:57:48.520Z,0.40
2017-12-08T18:00:15.979Z,0.40
2017-12-08T18:02:43.438Z,0.60
2017-12-08T18:05:10.890Z,0.60
2017-12-08T18:07:38.347Z,0.70
2017-12-08T18:10:05.803Z,0.70
2017-12-08T18:12:33.267Z,0.80
2017-12-08T18:15:00.771Z,0.90
2017-12-08T18:17:28.239Z,0.90
2017-12-08T18:19:55.682Z,0.90
2017-12-08T18:22:23.952Z,1.00
2017-12-08T18:24:52.176Z,1.00
2017-12-08T18:27:19.638Z,1.00
2017-12-08T18:29:47.108Z,1.00
2017-12-08T18:32:14.582Z,1.10
2017-12-08T18:34:42.036Z,1.00
2017-12-08T18:37:09.499Z,1.10
2017-12-08T18:39:36.963Z,1.10
2017-12-08T18:42:04.428Z,1.00
2017-12-08T18:44:31.885Z,0.90
2017-12-08T18:46:59.383Z,0.80
2017-12-08T18:49:26.847Z,0.80
2017-12-08T18:51:54.345Z,0.80
2017-12-08T18:54:21.834Z,0.80
2017-12-08T18:56:50.058Z,0.70
2017-12-08T18:59:17.528Z,0.70
2017-12-08T19:01:44.979Z,0.70
2017-12-08T19:04:12.449Z,0.70
2017-12-08T19:06:39.904Z,0.70
2017-12-08T19:09:07.371Z,0.60
2017-12-08T19:11:34.833Z,0.60
2017-12-08T19:14:02.298Z,0.50
2017-12-08T19:16:29.747Z,0.50
2017-12-08T19:18:57.213Z,0.50
2017-12-08T19:21:24.672Z,0.50
2017-12-08T19:23:52.145Z,0.50
2017-12-08T19:26:20.364Z,0.50
2017-12-08T19:28:47.864Z,0.50
2017-12-08T19:31:15.313Z,0.50
2017-12-08T19:33:42.780Z,0.50
2017-12-08T19:36:10.231Z,0.50
2017-12-08T19:38:37.687Z,0.50
2017-12-08T19:41:05.152Z,0.50
2017-12-08T19:43:32.611Z,0.60
2017-12-08T19:46:00.072Z,0.60
2017-12-08T19:48:27.536Z,0.70
2017-12-08T19:50:55.046Z,0.70
2017-12-08T19:53:22.597Z,0.80
2017-12-08T19:55:50.104Z,0.70
2017-12-08T19:58:17.555Z,0.70
2017-12-08T20:00:45.065Z,0.60
2017-12-08T20:03:12.521Z,0.60
2017-12-08T20:05:40.035Z,0.50
2017-12-08T20:08:07.482Z,0.40
2017-12-08T20:10:35.051Z,0.30
2017-12-08T20:13:02.511Z,0.40
2017-12-08T20:15:30.029Z,0.40
2017-12-08T20:17:57.498Z,0.40
2017-12-08T20:20:25.021Z,0.40
2017-12-08T20:22:53.251Z,0.20
2017-12-08T20:25:20.700Z,0.20
2017-12-08T20:27:48.234Z,0.10
2017-12-08T20:30:15.678Z,0.00
2017-12-08T20:32:43.159Z,-0.10
2017-12-08T20:35:10.634Z,-0.20
2017-12-08T20:37:38.182Z,-0.30
2017-12-08T20:40:05.636Z,-0.30
2017-12-08T20:42:33.112Z,-0.30
2017-12-08T20:45:00.571Z,-0.40
2017-12-08T20:47:28.077Z,-0.50
2017-12-08T20:49:56.304Z,-0.60
2017-12-08T20:52:25.046Z,-0.60
2017-12-08T20:54:53.283Z,-0.60
2017-12-08T20:57:20.752Z,-0.60
2017-12-08T20:59:48.231Z,-0.60
2017-12-08T21:02:16.463Z,-0.70
2017-12-08T21:04:43.928Z,-0.80
2017-12-08T21:07:11.439Z,-0.80
2017-12-08T21:09:39.664Z,-0.80
2017-12-08T21:12:07.125Z,-0.80
2017-12-08T21:14:34.597Z,-0.80
2017-12-08T21:17:02.070Z,-0.80
2017-12-08T21:19:30.294Z,-0.90
2017-12-08T21:21:57.786Z,-0.90
2017-12-08T21:24:25.253Z,-0.90
2017-12-08T21:26:52.711Z,-0.90
2017-12-08T21:29:20.177Z,-0.90
2017-12-08T21:31:48.432Z,-1.00
2017-12-08T21:34:15.907Z,-1.00
2017-12-08T21:36:44.159Z,-1.00
2017-12-08T21:39:11.627Z,-1.10
2017-12-08T21:41:39.082Z,-1.10
2017-12-08T21:44:06.570Z,-1.10
2017-12-08T21:46:34.793Z,-1.20
2017-12-08T21:49:02.259Z,-1.20
2017-12-08T21:51:29.722Z,-1.20
2017-12-08T21:53:57.187Z,-1.30
2017-12-08T21:56:26.151Z,-1.30
2017-12-08T21:58:53.630Z,-1.30
2017-12-08T22:01:21.091Z,-1.40
2017-12-08T22:03:48.560Z,-1.40
2017-12-08T22:06:16.800Z,-1.30
2017-12-08T22:08:44.269Z,-1.40
2017-12-08T22:11:11.837Z,-1.40
2017-12-08T22:13:39.299Z,-1.50
2017-12-08T22:16:06.768Z,-1.60
2017-12-08T22:18:35.024Z,-1.70
2017-12-08T22:21:02.496Z,-1.70
2017-12-08T22:23:29.951Z,-1.70
2017-12-08T22:25:57.490Z,-1.80
2017-12-08T22:28:24.956Z,-1.80
2017-12-08T22:30:52.422Z,-1.80
2017-12-08T22:33:19.880Z,-1.80
2017-12-08T22:35:47.347Z,-1.90
2017-12-08T22:38:14.886Z,-2.00
2017-12-08T22:40:42.452Z,-2.00
2017-12-08T22:43:09.919Z,-2.00
2017-12-08T22:45:37.391Z,-2.10
2017-12-08T22:48:05.629Z,-2.10
2017-12-08T22:50:33.208Z,-2.10
2017-12-08T22:53:00.679Z,-2.10
2017-12-08T22:55:28.944Z,-2.10
2017-12-08T22:57:56.416Z,-2.10
2017-12-08T23:00:28.519Z,-1.90
2017-12-08T23:02:55.992Z,-1.90
2017-12-08T23:05:23.495Z,-1.80
2017-12-08T23:07:51.738Z,-1.70
2017-12-08T23:10:19.196Z,-1.70
2017-12-08T23:12:46.668Z,-1.70
2017-12-08T23:15:14.132Z,-1.60
2017-12-08T23:17:41.600Z,-1.40
2017-12-08T23:20:09.843Z,-1.00
2017-12-08T23:22:37.299Z,-1.00
2017-12-08T23:25:04.816Z,-0.80
2017-12-08T23:27:32.285Z,-0.70
2017-12-08T23:30:00.580Z,-0.60
2017-12-08T23:32:28.047Z,-0.50
2017-12-08T23:34:55.520Z,-0.50
2017-12-08T23:37:23.079Z,-0.40
2017-12-08T23:39:50.554Z,-0.40
2017-12-08T23:42:18.013Z,-0.40
2017-12-08T23:44:46.240Z,-0.30
2017-12-08T23:47:13.708Z,-0.30
2017-12-08T23:49:41.195Z,-0.30
2017-12-08T23:52:08.655Z,-0.30
2017-12-08T23:54:36.131Z,-0.30
2017-12-08T23:57:04.365Z,-0.30
2017-12-08T23:59:31.835Z,-0.30
